Las Isletillas, Argentina
Current Conditions -  °F | °C
As of 12:00 PM on Thursday 30 Oct 2014 (Local Time) from SAOC Reporting Station
Scattered Clouds Scattered Clouds  
Wind Chill: 75°   Ceiling: Unl
Heat Index: 75°   Visibility: 6mi
Dew Point: 43°   Wind: 23mph
Humidity: 31%   Direction: 360°N
Pressure: 29.83"   Gusts: 35mph
Location:  32.38°S, 63.78°W
Report Text: SAOC 301500Z 36020G30KT 9999 FEW025 SCT100 24/06 Q1010
Loading
Personal Weather Stations






























Interactive Weather Map
Tropical Storm Tracking
New forecast layout! Learn more

10-Day Weather Forecast

Advertisements
Track Severe Weather on mobile